sensor_id;sensor_type;location;lat;lon;timestamp;P1;durP1;ratioP1;P2;durP2;ratioP2
3815;SDS011;1923;48.154;11.536;2023-03-31T00:00:52;4.68;;;3.20;;
3815;SDS011;1923;48.154;11.536;2023-03-31T00:03:24;3.50;;;2.63;;
3815;SDS011;1923;48.154;11.536;2023-03-31T00:05:56;6.47;;;2.80;;
3815;SDS011;1923;48.154;11.536;2023-03-31T00:08:24;8.50;;;3.33;;
3815;SDS011;1923;48.154;11.536;2023-03-31T00:10:57;3.63;;;2.83;;
3815;SDS011;1923;48.154;11.536;2023-03-31T00:13:26;5.00;;;3.17;;
3815;SDS011;1923;48.154;11.536;2023-03-31T00:15:55;2.87;;;2.50;;
3815;SDS011;1923;48.154;11.536;2023-03-31T00:18:25;6.43;;;3.20;;
3815;SDS011;1923;48.154;11.536;2023-03-31T00:20:53;3.43;;;2.97;;
3815;SDS011;1923;48.154;11.536;2023-03-31T00:23:24;3.73;;;2.83;;
3815;SDS011;1923;48.154;11.536;2023-03-31T00:25:54;7.03;;;3.37;;
3815;SDS011;1923;48.154;11.536;2023-03-31T00:28:22;6.90;;;2.90;;
3815;SDS011;1923;48.154;11.536;2023-03-31T00:30:50;6.10;;;3.60;;
3815;SDS011;1923;48.154;11.536;2023-03-31T00:33:18;3.83;;;2.67;;
3815;SDS011;1923;48.154;11.536;2023-03-31T00:35:51;4.83;;;3.07;;
3815;SDS011;1923;48.154;11.536;2023-03-31T00:38:19;5.90;;;2.87;;
3815;SDS011;1923;48.154;11.536;2023-03-31T00:40:47;5.07;;;3.20;;
3815;SDS011;1923;48.154;11.536;2023-03-31T00:43:23;9.40;;;3.90;;
3815;SDS011;1923;48.154;11.536;2023-03-31T00:46:00;5.13;;;3.70;;
3815;SDS011;1923;48.154;11.536;2023-03-31T00:48:33;5.03;;;2.90;;
3815;SDS011;1923;48.154;11.536;2023-03-31T00:51:05;5.27;;;3.37;;
3815;SDS011;1923;48.154;11.536;2023-03-31T00:53:34;3.90;;;3.00;;
3815;SDS011;1923;48.154;11.536;2023-03-31T00:56:05;6.27;;;3.30;;
3815;SDS011;1923;48.154;11.536;2023-03-31T00:58:38;3.97;;;2.77;;
3815;SDS011;1923;48.154;11.536;2023-03-31T01:01:10;5.60;;;2.87;;
3815;SDS011;1923;48.154;11.536;2023-03-31T01:03:43;3.47;;;2.73;;
3815;SDS011;1923;48.154;11.536;2023-03-31T01:06:14;4.00;;;2.97;;
3815;SDS011;1923;48.154;11.536;2023-03-31T01:08:45;4.53;;;3.00;;
3815;SDS011;1923;48.154;11.536;2023-03-31T01:11:15;4.40;;;3.07;;
3815;SDS011;1923;48.154;11.536;2023-03-31T01:13:46;5.40;;;2.77;;
3815;SDS011;1923;48.154;11.536;2023-03-31T01:16:17;4.17;;;2.80;;
3815;SDS011;1923;48.154;11.536;2023-03-31T01:18:45;3.90;;;2.73;;
3815;SDS011;1923;48.154;11.536;2023-03-31T01:24:35;3.93;;;2.60;;
3815;SDS011;1923;48.154;11.536;2023-03-31T01:27:34;4.10;;;2.60;;
3815;SDS011;1923;48.154;11.536;2023-03-31T01:30:29;4.30;;;2.70;;
3815;SDS011;1923;48.154;11.536;2023-03-31T01:36:30;4.30;;;3.40;;
3815;SDS011;1923;48.154;11.536;2023-03-31T01:39:25;5.30;;;2.57;;
3815;SDS011;1923;48.154;11.536;2023-03-31T01:42:12;3.20;;;2.90;;
3815;SDS011;1923;48.154;11.536;2023-03-31T01:44:44;3.87;;;2.83;;
3815;SDS011;1923;48.154;11.536;2023-03-31T01:47:18;5.80;;;3.17;;
3815;SDS011;1923;48.154;11.536;2023-03-31T01:49:51;5.60;;;3.97;;
3815;SDS011;1923;48.154;11.536;2023-03-31T01:52:24;4.60;;;2.90;;
3815;SDS011;1923;48.154;11.536;2023-03-31T01:54:58;2.80;;;2.40;;
3815;SDS011;1923;48.154;11.536;2023-03-31T01:57:32;2.93;;;2.63;;
3815;SDS011;1923;48.154;11.536;2023-03-31T02:00:02;3.70;;;2.30;;
3815;SDS011;1923;48.154;11.536;2023-03-31T02:02:35;4.93;;;2.60;;
3815;SDS011;1923;48.154;11.536;2023-03-31T02:05:07;4.27;;;2.83;;
3815;SDS011;1923;48.154;11.536;2023-03-31T02:07:39;6.23;;;3.40;;
3815;SDS011;1923;48.154;11.536;2023-03-31T02:10:13;3.33;;;2.47;;
3815;SDS011;1923;48.154;11.536;2023-03-31T02:12:44;6.33;;;2.80;;
3815;SDS011;1923;48.154;11.536;2023-03-31T02:15:14;5.50;;;2.80;;
3815;SDS011;1923;48.154;11.536;2023-03-31T02:17:48;4.73;;;2.70;;
3815;SDS011;1923;48.154;11.536;2023-03-31T02:20:20;4.00;;;2.90;;
3815;SDS011;1923;48.154;11.536;2023-03-31T02:22:51;6.60;;;3.03;;
3815;SDS011;1923;48.154;11.536;2023-03-31T02:25:22;4.63;;;3.07;;
3815;SDS011;1923;48.154;11.536;2023-03-31T02:27:58;7.23;;;3.00;;
3815;SDS011;1923;48.154;11.536;2023-03-31T02:30:29;3.90;;;2.73;;
3815;SDS011;1923;48.154;11.536;2023-03-31T02:33:03;3.27;;;2.60;;
3815;SDS011;1923;48.154;11.536;2023-03-31T02:35:31;7.50;;;2.73;;
3815;SDS011;1923;48.154;11.536;2023-03-31T02:38:00;4.97;;;2.63;;
3815;SDS011;1923;48.154;11.536;2023-03-31T02:40:32;2.80;;;2.50;;
3815;SDS011;1923;48.154;11.536;2023-03-31T02:43:01;2.93;;;2.63;;
3815;SDS011;1923;48.154;11.536;2023-03-31T02:45:36;2.70;;;2.30;;
3815;SDS011;1923;48.154;11.536;2023-03-31T02:48:10;7.13;;;2.90;;
3815;SDS011;1923;48.154;11.536;2023-03-31T02:50:50;5.50;;;3.50;;
3815;SDS011;1923;48.154;11.536;2023-03-31T02:53:36;3.20;;;2.87;;
3815;SDS011;1923;48.154;11.536;2023-03-31T02:56:14;3.03;;;2.60;;
3815;SDS011;1923;48.154;11.536;2023-03-31T02:58:57;3.40;;;2.70;;
3815;SDS011;1923;48.154;11.536;2023-03-31T03:01:44;4.40;;;2.53;;
3815;SDS011;1923;48.154;11.536;2023-03-31T03:04:42;3.80;;;2.60;;
3815;SDS011;1923;48.154;11.536;2023-03-31T03:07:27;5.30;;;2.87;;
3815;SDS011;1923;48.154;11.536;2023-03-31T03:10:03;6.80;;;3.87;;
3815;SDS011;1923;48.154;11.536;2023-03-31T03:12:37;5.23;;;2.70;;
3815;SDS011;1923;48.154;11.536;2023-03-31T03:15:13;4.40;;;3.10;;
3815;SDS011;1923;48.154;11.536;2023-03-31T03:17:46;4.83;;;3.23;;
3815;SDS011;1923;48.154;11.536;2023-03-31T03:20:14;7.97;;;3.10;;
3815;SDS011;1923;48.154;11.536;2023-03-31T03:22:45;4.77;;;3.27;;
3815;SDS011;1923;48.154;11.536;2023-03-31T03:25:14;5.10;;;2.70;;
3815;SDS011;1923;48.154;11.536;2023-03-31T03:27:43;11.13;;;3.10;;
3815;SDS011;1923;48.154;11.536;2023-03-31T03:30:13;3.60;;;3.03;;
3815;SDS011;1923;48.154;11.536;2023-03-31T03:32:41;5.10;;;3.00;;
3815;SDS011;1923;48.154;11.536;2023-03-31T03:35:09;6.07;;;3.70;;
3815;SDS011;1923;48.154;11.536;2023-03-31T03:37:37;3.37;;;2.67;;
3815;SDS011;1923;48.154;11.536;2023-03-31T03:40:06;2.90;;;2.60;;
3815;SDS011;1923;48.154;11.536;2023-03-31T03:42:35;4.83;;;3.07;;
3815;SDS011;1923;48.154;11.536;2023-03-31T03:45:04;5.70;;;3.03;;
3815;SDS011;1923;48.154;11.536;2023-03-31T03:47:34;3.33;;;2.60;;
3815;SDS011;1923;48.154;11.536;2023-03-31T03:50:02;4.10;;;2.90;;
3815;SDS011;1923;48.154;11.536;2023-03-31T03:52:30;5.27;;;3.47;;
3815;SDS011;1923;48.154;11.536;2023-03-31T03:54:59;4.67;;;3.33;;
3815;SDS011;1923;48.154;11.536;2023-03-31T03:57:27;4.30;;;3.17;;
3815;SDS011;1923;48.154;11.536;2023-03-31T03:59:55;6.60;;;4.07;;
3815;SDS011;1923;48.154;11.536;2023-03-31T04:02:23;10.60;;;3.17;;
3815;SDS011;1923;48.154;11.536;2023-03-31T04:04:55;2.87;;;2.60;;
3815;SDS011;1923;48.154;11.536;2023-03-31T04:07:23;3.67;;;2.30;;
3815;SDS011;1923;48.154;11.536;2023-03-31T04:09:52;4.73;;;3.17;;
3815;SDS011;1923;48.154;11.536;2023-03-31T04:12:20;3.53;;;2.60;;
3815;SDS011;1923;48.154;11.536;2023-03-31T04:14:48;9.60;;;3.77;;
3815;SDS011;1923;48.154;11.536;2023-03-31T04:17:16;4.60;;;3.40;;
3815;SDS011;1923;48.154;11.536;2023-03-31T04:19:44;4.63;;;3.30;;
3815;SDS011;1923;48.154;11.536;2023-03-31T04:22:17;4.27;;;2.90;;
3815;SDS011;1923;48.154;11.536;2023-03-31T04:24:45;5.80;;;3.03;;
3815;SDS011;1923;48.154;11.536;2023-03-31T04:27:18;6.23;;;4.03;;
3815;SDS011;1923;48.154;11.536;2023-03-31T04:29:46;7.00;;;3.20;;
3815;SDS011;1923;48.154;11.536;2023-03-31T04:32:20;5.30;;;3.97;;
3815;SDS011;1923;48.154;11.536;2023-03-31T04:34:48;4.63;;;3.13;;
3815;SDS011;1923;48.154;11.536;2023-03-31T04:37:18;5.57;;;3.20;;
3815;SDS011;1923;48.154;11.536;2023-03-31T04:39:46;7.63;;;3.50;;
3815;SDS011;1923;48.154;11.536;2023-03-31T04:42:15;5.33;;;3.50;;
3815;SDS011;1923;48.154;11.536;2023-03-31T04:44:46;4.90;;;3.67;;
3815;SDS011;1923;48.154;11.536;2023-03-31T04:47:14;5.07;;;3.33;;
3815;SDS011;1923;48.154;11.536;2023-03-31T04:49:42;3.93;;;3.30;;
3815;SDS011;1923;48.154;11.536;2023-03-31T04:52:10;4.93;;;4.07;;
3815;SDS011;1923;48.154;11.536;2023-03-31T04:54:39;4.20;;;3.30;;
3815;SDS011;1923;48.154;11.536;2023-03-31T04:57:07;9.03;;;4.63;;
3815;SDS011;1923;48.154;11.536;2023-03-31T04:59:35;6.17;;;3.90;;
3815;SDS011;1923;48.154;11.536;2023-03-31T05:02:03;5.00;;;3.43;;
3815;SDS011;1923;48.154;11.536;2023-03-31T05:04:32;4.80;;;3.03;;
3815;SDS011;1923;48.154;11.536;2023-03-31T05:06:59;4.83;;;3.37;;
3815;SDS011;1923;48.154;11.536;2023-03-31T05:09:28;6.17;;;3.30;;
3815;SDS011;1923;48.154;11.536;2023-03-31T05:11:57;6.37;;;3.90;;
3815;SDS011;1923;48.154;11.536;2023-03-31T05:14:25;4.90;;;3.90;;
3815;SDS011;1923;48.154;11.536;2023-03-31T05:16:54;5.23;;;3.20;;
3815;SDS011;1923;48.154;11.536;2023-03-31T05:19:23;9.20;;;4.50;;
3815;SDS011;1923;48.154;11.536;2023-03-31T05:21:52;7.40;;;3.70;;
3815;SDS011;1923;48.154;11.536;2023-03-31T05:24:19;6.13;;;4.00;;
3815;SDS011;1923;48.154;11.536;2023-03-31T05:26:47;7.20;;;3.80;;
3815;SDS011;1923;48.154;11.536;2023-03-31T05:29:19;5.83;;;3.60;;
3815;SDS011;1923;48.154;11.536;2023-03-31T05:31:48;7.20;;;4.23;;
3815;SDS011;1923;48.154;11.536;2023-03-31T05:34:18;5.30;;;3.70;;
3815;SDS011;1923;48.154;11.536;2023-03-31T05:36:47;5.50;;;3.90;;
3815;SDS011;1923;48.154;11.536;2023-03-31T05:39:18;6.67;;;3.70;;
3815;SDS011;1923;48.154;11.536;2023-03-31T05:41:47;6.90;;;4.67;;
3815;SDS011;1923;48.154;11.536;2023-03-31T05:44:15;7.23;;;4.10;;
3815;SDS011;1923;48.154;11.536;2023-03-31T05:46:47;10.63;;;4.63;;
3815;SDS011;1923;48.154;11.536;2023-03-31T05:49:15;11.07;;;4.57;;
3815;SDS011;1923;48.154;11.536;2023-03-31T05:51:43;5.17;;;3.30;;
3815;SDS011;1923;48.154;11.536;2023-03-31T05:54:11;7.50;;;4.03;;
3815;SDS011;1923;48.154;11.536;2023-03-31T05:56:40;5.90;;;4.03;;
3815;SDS011;1923;48.154;11.536;2023-03-31T05:59:08;7.47;;;3.33;;
3815;SDS011;1923;48.154;11.536;2023-03-31T06:01:36;4.50;;;3.33;;
3815;SDS011;1923;48.154;11.536;2023-03-31T06:04:06;5.30;;;4.20;;
3815;SDS011;1923;48.154;11.536;2023-03-31T06:06:34;8.17;;;4.17;;
3815;SDS011;1923;48.154;11.536;2023-03-31T06:09:03;5.07;;;3.80;;
3815;SDS011;1923;48.154;11.536;2023-03-31T06:11:32;6.07;;;3.67;;
3815;SDS011;1923;48.154;11.536;2023-03-31T06:14:00;5.83;;;4.33;;
3815;SDS011;1923;48.154;11.536;2023-03-31T06:16:28;4.93;;;3.70;;
3815;SDS011;1923;48.154;11.536;2023-03-31T06:18:56;7.90;;;4.30;;
3815;SDS011;1923;48.154;11.536;2023-03-31T06:21:26;5.30;;;4.30;;
3815;SDS011;1923;48.154;11.536;2023-03-31T06:23:53;6.00;;;4.00;;
3815;SDS011;1923;48.154;11.536;2023-03-31T06:26:23;5.33;;;3.53;;
3815;SDS011;1923;48.154;11.536;2023-03-31T06:28:51;7.30;;;4.33;;
3815;SDS011;1923;48.154;11.536;2023-03-31T06:31:20;6.00;;;3.77;;
3815;SDS011;1923;48.154;11.536;2023-03-31T06:33:49;6.10;;;3.80;;
3815;SDS011;1923;48.154;11.536;2023-03-31T06:36:18;8.47;;;4.27;;
3815;SDS011;1923;48.154;11.536;2023-03-31T06:38:49;5.60;;;4.10;;
3815;SDS011;1923;48.154;11.536;2023-03-31T06:41:17;4.60;;;3.53;;
3815;SDS011;1923;48.154;11.536;2023-03-31T06:43:47;6.53;;;3.67;;
3815;SDS011;1923;48.154;11.536;2023-03-31T06:46:15;5.13;;;3.30;;
3815;SDS011;1923;48.154;11.536;2023-03-31T06:48:43;4.77;;;3.50;;
3815;SDS011;1923;48.154;11.536;2023-03-31T06:51:11;5.20;;;3.70;;
3815;SDS011;1923;48.154;11.536;2023-03-31T06:53:39;6.00;;;3.20;;
3815;SDS011;1923;48.154;11.536;2023-03-31T06:56:09;6.43;;;3.93;;
3815;SDS011;1923;48.154;11.536;2023-03-31T06:58:37;5.93;;;3.00;;
3815;SDS011;1923;48.154;11.536;2023-03-31T07:01:05;5.40;;;3.73;;
3815;SDS011;1923;48.154;11.536;2023-03-31T07:03:34;3.57;;;2.83;;
3815;SDS011;1923;48.154;11.536;2023-03-31T07:06:02;5.03;;;3.03;;
3815;SDS011;1923;48.154;11.536;2023-03-31T07:08:30;3.80;;;2.60;;
3815;SDS011;1923;48.154;11.536;2023-03-31T07:10:59;3.87;;;2.63;;
3815;SDS011;1923;48.154;11.536;2023-03-31T07:13:29;5.13;;;2.70;;
3815;SDS011;1923;48.154;11.536;2023-03-31T07:15:57;3.73;;;3.23;;
3815;SDS011;1923;48.154;11.536;2023-03-31T07:18:25;7.10;;;3.40;;
3815;SDS011;1923;48.154;11.536;2023-03-31T07:21:00;7.33;;;3.50;;
3815;SDS011;1923;48.154;11.536;2023-03-31T07:23:32;6.60;;;3.93;;
3815;SDS011;1923;48.154;11.536;2023-03-31T07:26:00;5.60;;;3.77;;
3815;SDS011;1923;48.154;11.536;2023-03-31T07:28:29;4.87;;;3.23;;
3815;SDS011;1923;48.154;11.536;2023-03-31T07:30:58;3.87;;;3.43;;
3815;SDS011;1923;48.154;11.536;2023-03-31T07:33:26;6.63;;;3.50;;
3815;SDS011;1923;48.154;11.536;2023-03-31T07:35:54;5.83;;;3.73;;
3815;SDS011;1923;48.154;11.536;2023-03-31T07:38:37;12.33;;;4.03;;
3815;SDS011;1923;48.154;11.536;2023-03-31T07:41:08;5.53;;;3.43;;
3815;SDS011;1923;48.154;11.536;2023-03-31T07:43:39;5.20;;;3.70;;
3815;SDS011;1923;48.154;11.536;2023-03-31T07:46:12;4.43;;;3.20;;
3815;SDS011;1923;48.154;11.536;2023-03-31T07:48:42;5.90;;;3.90;;
3815;SDS011;1923;48.154;11.536;2023-03-31T07:51:12;5.40;;;3.30;;
3815;SDS011;1923;48.154;11.536;2023-03-31T07:53:41;7.03;;;3.73;;
3815;SDS011;1923;48.154;11.536;2023-03-31T07:56:10;6.53;;;3.67;;
3815;SDS011;1923;48.154;11.536;2023-03-31T07:58:40;11.23;;;3.90;;
3815;SDS011;1923;48.154;11.536;2023-03-31T08:01:08;5.70;;;3.73;;
3815;SDS011;1923;48.154;11.536;2023-03-31T08:03:37;7.63;;;4.80;;
3815;SDS011;1923;48.154;11.536;2023-03-31T08:06:05;7.13;;;3.60;;
3815;SDS011;1923;48.154;11.536;2023-03-31T08:08:33;6.30;;;3.77;;
3815;SDS011;1923;48.154;11.536;2023-03-31T08:11:03;7.23;;;3.70;;
3815;SDS011;1923;48.154;11.536;2023-03-31T08:13:32;6.77;;;4.87;;
3815;SDS011;1923;48.154;11.536;2023-03-31T08:16:01;7.20;;;3.70;;
3815;SDS011;1923;48.154;11.536;2023-03-31T08:18:30;4.33;;;3.00;;
3815;SDS011;1923;48.154;11.536;2023-03-31T08:20:58;6.40;;;3.83;;
3815;SDS011;1923;48.154;11.536;2023-03-31T08:23:26;4.07;;;3.00;;
3815;SDS011;1923;48.154;11.536;2023-03-31T08:25:54;4.53;;;3.37;;
3815;SDS011;1923;48.154;11.536;2023-03-31T08:28:33;5.73;;;3.13;;
3815;SDS011;1923;48.154;11.536;2023-03-31T08:31:03;6.30;;;3.40;;
3815;SDS011;1923;48.154;11.536;2023-03-31T08:33:32;4.57;;;3.05;;
3815;SDS011;1923;48.154;11.536;2023-03-31T08:36:01;4.40;;;2.80;;
3815;SDS011;1923;48.154;11.536;2023-03-31T08:38:30;4.90;;;3.70;;
3815;SDS011;1923;48.154;11.536;2023-03-31T08:40:58;7.07;;;3.87;;
3815;SDS011;1923;48.154;11.536;2023-03-31T08:43:28;5.67;;;4.30;;
3815;SDS011;1923;48.154;11.536;2023-03-31T08:45:59;10.00;;;3.60;;
3815;SDS011;1923;48.154;11.536;2023-03-31T08:48:31;3.77;;;2.60;;
3815;SDS011;1923;48.154;11.536;2023-03-31T08:51:05;4.00;;;2.50;;
3815;SDS011;1923;48.154;11.536;2023-03-31T08:53:40;4.60;;;2.63;;
3815;SDS011;1923;48.154;11.536;2023-03-31T08:56:13;3.73;;;2.80;;
3815;SDS011;1923;48.154;11.536;2023-03-31T08:58:43;6.70;;;2.33;;
3815;SDS011;1923;48.154;11.536;2023-03-31T09:01:15;3.63;;;2.60;;
3815;SDS011;1923;48.154;11.536;2023-03-31T09:03:53;3.07;;;2.23;;
3815;SDS011;1923;48.154;11.536;2023-03-31T09:06:38;3.97;;;2.35;;
3815;SDS011;1923;48.154;11.536;2023-03-31T09:09:10;4.17;;;2.30;;
3815;SDS011;1923;48.154;11.536;2023-03-31T09:11:46;3.40;;;2.10;;
3815;SDS011;1923;48.154;11.536;2023-03-31T09:14:28;3.73;;;2.70;;
3815;SDS011;1923;48.154;11.536;2023-03-31T09:17:02;4.00;;;2.30;;
3815;SDS011;1923;48.154;11.536;2023-03-31T09:19:44;2.30;;;2.07;;
3815;SDS011;1923;48.154;11.536;2023-03-31T09:22:17;3.20;;;1.90;;
3815;SDS011;1923;48.154;11.536;2023-03-31T09:24:50;3.13;;;2.03;;
3815;SDS011;1923;48.154;11.536;2023-03-31T09:27:22;2.63;;;1.90;;
3815;SDS011;1923;48.154;11.536;2023-03-31T09:29:54;1.87;;;1.67;;
3815;SDS011;1923;48.154;11.536;2023-03-31T09:32:27;2.17;;;1.50;;
3815;SDS011;1923;48.154;11.536;2023-03-31T09:34:58;3.90;;;2.13;;
3815;SDS011;1923;48.154;11.536;2023-03-31T09:37:29;3.10;;;1.80;;
3815;SDS011;1923;48.154;11.536;2023-03-31T09:39:59;2.87;;;1.60;;
3815;SDS011;1923;48.154;11.536;2023-03-31T09:42:33;3.07;;;1.60;;
3815;SDS011;1923;48.154;11.536;2023-03-31T09:45:02;3.20;;;2.10;;
3815;SDS011;1923;48.154;11.536;2023-03-31T09:47:31;2.90;;;1.52;;
3815;SDS011;1923;48.154;11.536;2023-03-31T09:50:06;1.40;;;1.00;;
3815;SDS011;1923;48.154;11.536;2023-03-31T09:52:36;1.70;;;1.20;;
3815;SDS011;1923;48.154;11.536;2023-03-31T09:55:14;1.30;;;1.00;;
3815;SDS011;1923;48.154;11.536;2023-03-31T09:58:05;1.73;;;1.03;;
3815;SDS011;1923;48.154;11.536;2023-03-31T10:00:33;1.97;;;1.10;;
3815;SDS011;1923;48.154;11.536;2023-03-31T10:03:02;1.10;;;0.90;;
3815;SDS011;1923;48.154;11.536;2023-03-31T10:05:35;1.47;;;1.00;;
3815;SDS011;1923;48.154;11.536;2023-03-31T10:08:25;2.57;;;1.43;;
3815;SDS011;1923;48.154;11.536;2023-03-31T10:10:57;1.23;;;1.07;;
3815;SDS011;1923;48.154;11.536;2023-03-31T10:13:37;2.40;;;1.20;;
3815;SDS011;1923;48.154;11.536;2023-03-31T10:16:11;1.90;;;1.10;;
3815;SDS011;1923;48.154;11.536;2023-03-31T10:18:41;1.70;;;1.20;;
3815;SDS011;1923;48.154;11.536;2023-03-31T10:21:17;1.23;;;1.13;;
3815;SDS011;1923;48.154;11.536;2023-03-31T10:23:49;1.70;;;0.87;;
3815;SDS011;1923;48.154;11.536;2023-03-31T10:26:18;2.60;;;0.87;;
3815;SDS011;1923;48.154;11.536;2023-03-31T10:28:49;2.23;;;1.33;;
3815;SDS011;1923;48.154;11.536;2023-03-31T10:31:18;1.67;;;1.40;;
3815;SDS011;1923;48.154;11.536;2023-03-31T10:33:47;3.00;;;1.40;;
3815;SDS011;1923;48.154;11.536;2023-03-31T10:36:20;1.50;;;0.90;;
3815;SDS011;1923;48.154;11.536;2023-03-31T10:38:51;1.50;;;0.93;;
3815;SDS011;1923;48.154;11.536;2023-03-31T10:41:22;2.10;;;1.33;;
3815;SDS011;1923;48.154;11.536;2023-03-31T10:43:53;2.45;;;1.50;;
3815;SDS011;1923;48.154;11.536;2023-03-31T10:46:38;2.83;;;1.13;;
3815;SDS011;1923;48.154;11.536;2023-03-31T10:49:13;2.10;;;1.40;;
3815;SDS011;1923;48.154;11.536;2023-03-31T10:51:53;2.27;;;1.23;;
3815;SDS011;1923;48.154;11.536;2023-03-31T10:54:22;3.00;;;1.63;;
3815;SDS011;1923;48.154;11.536;2023-03-31T10:56:52;1.90;;;1.37;;
3815;SDS011;1923;48.154;11.536;2023-03-31T10:59:31;2.23;;;1.30;;
3815;SDS011;1923;48.154;11.536;2023-03-31T11:02:16;2.20;;;1.33;;
3815;SDS011;1923;48.154;11.536;2023-03-31T11:05:03;2.30;;;1.40;;
3815;SDS011;1923;48.154;11.536;2023-03-31T11:07:44;4.35;;;1.80;;
3815;SDS011;1923;48.154;11.536;2023-03-31T11:10:21;2.63;;;1.50;;
3815;SDS011;1923;48.154;11.536;2023-03-31T11:13:10;2.70;;;2.33;;
3815;SDS011;1923;48.154;11.536;2023-03-31T11:15:45;5.47;;;1.80;;
3815;SDS011;1923;48.154;11.536;2023-03-31T11:21:22;3.73;;;1.80;;
3815;SDS011;1923;48.154;11.536;2023-03-31T11:24:03;3.70;;;2.13;;
3815;SDS011;1923;48.154;11.536;2023-03-31T11:26:39;1.57;;;1.13;;
3815;SDS011;1923;48.154;11.536;2023-03-31T11:29:15;1.30;;;0.73;;
3815;SDS011;1923;48.154;11.536;2023-03-31T11:31:57;1.33;;;0.73;;
3815;SDS011;1923;48.154;11.536;2023-03-31T11:34:48;1.53;;;0.90;;
3815;SDS011;1923;48.154;11.536;2023-03-31T11:37:33;0.90;;;0.60;;
3815;SDS011;1923;48.154;11.536;2023-03-31T11:40:17;1.10;;;0.73;;
3815;SDS011;1923;48.154;11.536;2023-03-31T11:42:58;1.85;;;0.90;;
3815;SDS011;1923;48.154;11.536;2023-03-31T11:45:32;1.70;;;0.90;;
3815;SDS011;1923;48.154;11.536;2023-03-31T11:48:05;0.97;;;0.60;;
3815;SDS011;1923;48.154;11.536;2023-03-31T11:50:40;1.00;;;0.83;;
3815;SDS011;1923;48.154;11.536;2023-03-31T11:53:13;1.00;;;0.90;;
3815;SDS011;1923;48.154;11.536;2023-03-31T11:55:46;1.63;;;0.90;;
3815;SDS011;1923;48.154;11.536;2023-03-31T11:58:17;1.10;;;0.73;;
3815;SDS011;1923;48.154;11.536;2023-03-31T12:00:50;1.83;;;0.80;;
3815;SDS011;1923;48.154;11.536;2023-03-31T12:03:22;1.90;;;1.27;;
3815;SDS011;1923;48.154;11.536;2023-03-31T12:05:57;1.50;;;0.90;;
3815;SDS011;1923;48.154;11.536;2023-03-31T12:08:29;1.00;;;0.90;;
3815;SDS011;1923;48.154;11.536;2023-03-31T12:11:06;1.77;;;1.20;;
3815;SDS011;1923;48.154;11.536;2023-03-31T12:13:39;2.23;;;0.90;;
3815;SDS011;1923;48.154;11.536;2023-03-31T12:16:13;2.37;;;0.73;;
3815;SDS011;1923;48.154;11.536;2023-03-31T12:18:48;2.20;;;1.00;;
3815;SDS011;1923;48.154;11.536;2023-03-31T12:21:27;0.93;;;0.67;;
3815;SDS011;1923;48.154;11.536;2023-03-31T12:23:58;7.03;;;2.20;;
3815;SDS011;1923;48.154;11.536;2023-03-31T12:26:30;1.80;;;0.80;;
3815;SDS011;1923;48.154;11.536;2023-03-31T12:29:06;2.30;;;0.83;;
3815;SDS011;1923;48.154;11.536;2023-03-31T12:31:46;1.20;;;0.90;;
3815;SDS011;1923;48.154;11.536;2023-03-31T12:34:16;1.50;;;0.70;;
3815;SDS011;1923;48.154;11.536;2023-03-31T12:36:50;7.07;;;1.40;;
3815;SDS011;1923;48.154;11.536;2023-03-31T12:39:30;1.13;;;0.80;;
3815;SDS011;1923;48.154;11.536;2023-03-31T12:42:14;0.80;;;0.67;;
3815;SDS011;1923;48.154;11.536;2023-03-31T12:45:10;1.77;;;1.07;;
3815;SDS011;1923;48.154;11.536;2023-03-31T12:47:49;1.40;;;0.80;;
3815;SDS011;1923;48.154;11.536;2023-03-31T12:50:35;1.90;;;0.87;;
3815;SDS011;1923;48.154;11.536;2023-03-31T12:53:22;1.00;;;0.87;;
3815;SDS011;1923;48.154;11.536;2023-03-31T12:55:57;1.20;;;0.80;;
3815;SDS011;1923;48.154;11.536;2023-03-31T12:58:41;5.30;;;1.47;;
3815;SDS011;1923;48.154;11.536;2023-03-31T13:01:14;1.80;;;1.00;;
3815;SDS011;1923;48.154;11.536;2023-03-31T13:03:45;1.77;;;0.90;;
3815;SDS011;1923;48.154;11.536;2023-03-31T13:09:38;1.20;;;1.00;;
3815;SDS011;1923;48.154;11.536;2023-03-31T13:12:14;1.77;;;0.80;;
3815;SDS011;1923;48.154;11.536;2023-03-31T13:14:46;1.17;;;0.70;;
3815;SDS011;1923;48.154;11.536;2023-03-31T13:17:22;0.93;;;0.53;;
3815;SDS011;1923;48.154;11.536;2023-03-31T13:19:52;1.43;;;0.70;;
3815;SDS011;1923;48.154;11.536;2023-03-31T13:22:28;0.77;;;0.47;;
3815;SDS011;1923;48.154;11.536;2023-03-31T13:28:17;1.30;;;0.73;;
3815;SDS011;1923;48.154;11.536;2023-03-31T13:30:54;1.00;;;0.60;;
3815;SDS011;1923;48.154;11.536;2023-03-31T13:33:38;1.50;;;0.40;;
3815;SDS011;1923;48.154;11.536;2023-03-31T13:36:18;1.10;;;0.60;;
3815;SDS011;1923;48.154;11.536;2023-03-31T13:39:07;0.90;;;0.77;;
3815;SDS011;1923;48.154;11.536;2023-03-31T13:41:52;0.70;;;0.63;;
3815;SDS011;1923;48.154;11.536;2023-03-31T13:44:38;0.70;;;0.47;;
3815;SDS011;1923;48.154;11.536;2023-03-31T13:47:35;1.03;;;0.70;;
3815;SDS011;1923;48.154;11.536;2023-03-31T13:50:34;1.03;;;0.53;;
3815;SDS011;1923;48.154;11.536;2023-03-31T13:53:14;1.33;;;0.53;;
3815;SDS011;1923;48.154;11.536;2023-03-31T13:55:56;1.10;;;0.50;;
3815;SDS011;1923;48.154;11.536;2023-03-31T14:04:34;2.10;;;0.77;;
3815;SDS011;1923;48.154;11.536;2023-03-31T14:07:26;0.90;;;0.50;;
3815;SDS011;1923;48.154;11.536;2023-03-31T14:09:58;1.80;;;0.80;;
3815;SDS011;1923;48.154;11.536;2023-03-31T14:12:31;1.60;;;0.83;;
3815;SDS011;1923;48.154;11.536;2023-03-31T14:15:01;1.60;;;0.80;;
3815;SDS011;1923;48.154;11.536;2023-03-31T14:17:30;1.40;;;0.60;;
3815;SDS011;1923;48.154;11.536;2023-03-31T14:20:07;0.70;;;0.60;;
3815;SDS011;1923;48.154;11.536;2023-03-31T14:22:53;0.97;;;0.70;;
3815;SDS011;1923;48.154;11.536;2023-03-31T14:25:35;1.10;;;0.80;;
3815;SDS011;1923;48.154;11.536;2023-03-31T14:28:13;2.10;;;0.40;;
3815;SDS011;1923;48.154;11.536;2023-03-31T14:31:05;1.77;;;0.87;;
3815;SDS011;1923;48.154;11.536;2023-03-31T14:33:41;1.20;;;0.50;;
3815;SDS011;1923;48.154;11.536;2023-03-31T14:36:20;1.50;;;0.80;;
3815;SDS011;1923;48.154;11.536;2023-03-31T14:38:54;0.73;;;0.60;;
3815;SDS011;1923;48.154;11.536;2023-03-31T14:41:29;5.47;;;1.83;;
3815;SDS011;1923;48.154;11.536;2023-03-31T14:43:59;0.70;;;0.60;;
3815;SDS011;1923;48.154;11.536;2023-03-31T14:46:29;1.03;;;0.60;;
3815;SDS011;1923;48.154;11.536;2023-03-31T14:49:05;0.83;;;0.53;;
3815;SDS011;1923;48.154;11.536;2023-03-31T14:51:50;2.50;;;0.80;;
3815;SDS011;1923;48.154;11.536;2023-03-31T14:54:19;1.87;;;0.70;;
3815;SDS011;1923;48.154;11.536;2023-03-31T14:56:49;1.87;;;0.97;;
3815;SDS011;1923;48.154;11.536;2023-03-31T14:59:20;1.40;;;1.30;;
3815;SDS011;1923;48.154;11.536;2023-03-31T15:01:52;1.50;;;0.87;;
3815;SDS011;1923;48.154;11.536;2023-03-31T15:04:23;0.70;;;0.60;;
3815;SDS011;1923;48.154;11.536;2023-03-31T15:07:08;1.17;;;0.80;;
3815;SDS011;1923;48.154;11.536;2023-03-31T15:09:37;2.90;;;0.90;;
3815;SDS011;1923;48.154;11.536;2023-03-31T15:12:07;2.93;;;0.70;;
3815;SDS011;1923;48.154;11.536;2023-03-31T15:14:41;0.80;;;0.70;;
3815;SDS011;1923;48.154;11.536;2023-03-31T15:17:16;0.80;;;0.60;;
3815;SDS011;1923;48.154;11.536;2023-03-31T15:19:50;1.40;;;0.60;;
3815;SDS011;1923;48.154;11.536;2023-03-31T15:22:22;2.20;;;1.60;;
3815;SDS011;1923;48.154;11.536;2023-03-31T15:24:52;1.20;;;0.80;;
3815;SDS011;1923;48.154;11.536;2023-03-31T15:27:25;0.80;;;0.60;;
3815;SDS011;1923;48.154;11.536;2023-03-31T15:30:20;0.90;;;0.70;;
3815;SDS011;1923;48.154;11.536;2023-03-31T15:32:51;1.80;;;1.03;;
3815;SDS011;1923;48.154;11.536;2023-03-31T15:35:27;2.53;;;1.20;;
3815;SDS011;1923;48.154;11.536;2023-03-31T15:37:59;0.80;;;0.67;;
3815;SDS011;1923;48.154;11.536;2023-03-31T15:40:31;2.90;;;0.63;;
3815;SDS011;1923;48.154;11.536;2023-03-31T15:43:05;1.67;;;0.73;;
3815;SDS011;1923;48.154;11.536;2023-03-31T15:45:46;0.90;;;0.60;;
3815;SDS011;1923;48.154;11.536;2023-03-31T15:48:21;1.03;;;0.67;;
3815;SDS011;1923;48.154;11.536;2023-03-31T15:50:51;1.03;;;0.60;;
3815;SDS011;1923;48.154;11.536;2023-03-31T15:53:27;1.17;;;0.60;;
3815;SDS011;1923;48.154;11.536;2023-03-31T15:55:57;7.03;;;0.97;;
3815;SDS011;1923;48.154;11.536;2023-03-31T15:58:46;1.20;;;0.53;;